sensor_id;sensor_type;location;lat;lon;timestamp;pressure;altitude;pressure_sealevel;temperature;humidity
56518;BME280;42419;48.760;2.322;2023-02-16T00:01:22;101860.88;;;22.68;31.20
56518;BME280;42419;48.760;2.322;2023-02-16T00:03:49;101871.25;;;22.78;30.92
56518;BME280;42419;48.760;2.322;2023-02-16T00:06:17;101866.78;;;22.79;30.97
56518;BME280;42419;48.760;2.322;2023-02-16T00:08:45;101868.56;;;22.78;30.95
56518;BME280;42419;48.760;2.322;2023-02-16T00:11:32;101874.84;;;22.79;31.05
56518;BME280;42419;48.760;2.322;2023-02-16T00:14:17;101872.19;;;22.77;30.83
56518;BME280;42419;48.760;2.322;2023-02-16T00:16:43;101869.53;;;22.76;30.86
56518;BME280;42419;48.760;2.322;2023-02-16T00:19:20;101871.25;;;22.78;30.82
56518;BME280;42419;48.760;2.322;2023-02-16T00:21:47;101869.50;;;22.77;30.90
56518;BME280;42419;48.760;2.322;2023-02-16T00:24:14;101873.06;;;22.78;30.83
56518;BME280;42419;48.760;2.322;2023-02-16T00:26:40;101865.94;;;22.77;30.89
56518;BME280;42419;48.760;2.322;2023-02-16T00:29:05;101869.50;;;22.77;30.57
56518;BME280;42419;48.760;2.322;2023-02-16T00:31:31;101863.31;;;22.75;30.67
56518;BME280;42419;48.760;2.322;2023-02-16T00:33:57;101865.84;;;22.80;30.74
56518;BME280;42419;48.760;2.322;2023-02-16T00:36:23;101851.72;;;22.73;30.44
56518;BME280;42419;48.760;2.322;2023-02-16T00:38:49;101856.84;;;22.81;30.49
56518;BME280;42419;48.760;2.322;2023-02-16T00:41:20;101837.63;;;22.67;30.52
56518;BME280;42419;48.760;2.322;2023-02-16T00:44:05;101863.16;;;22.80;30.81
56518;BME280;42419;48.760;2.322;2023-02-16T00:46:36;101859.59;;;22.79;30.64
56518;BME280;42419;48.760;2.322;2023-02-16T00:49:02;101855.91;;;22.82;30.42
56518;BME280;42419;48.760;2.322;2023-02-16T00:51:28;101853.22;;;22.82;30.53
56518;BME280;42419;48.760;2.322;2023-02-16T00:53:53;101850.56;;;22.82;30.49
56518;BME280;42419;48.760;2.322;2023-02-16T00:56:19;101853.22;;;22.82;30.45
56518;BME280;42419;48.760;2.322;2023-02-16T00:58:46;101836.53;;;22.72;30.26
56518;BME280;42419;48.760;2.322;2023-02-16T01:01:14;101775.06;;;22.37;30.46
56518;BME280;42419;48.760;2.322;2023-02-16T01:03:42;101855.13;;;22.80;30.29
56518;BME280;42419;48.760;2.322;2023-02-16T01:06:09;101830.28;;;22.72;30.23
56518;BME280;42419;48.760;2.322;2023-02-16T01:08:56;101837.28;;;22.77;30.30
56518;BME280;42419;48.760;2.322;2023-02-16T01:11:45;101844.41;;;22.78;30.15
56518;BME280;42419;48.760;2.322;2023-02-16T01:14:11;101835.47;;;22.78;30.28
56518;BME280;42419;48.760;2.322;2023-02-16T01:16:39;101841.72;;;22.78;30.25
56518;BME280;42419;48.760;2.322;2023-02-16T01:19:05;101839.03;;;22.78;30.24
56518;BME280;42419;48.760;2.322;2023-02-16T01:21:38;101841.72;;;22.78;30.20
56518;BME280;42419;48.760;2.322;2023-02-16T01:24:04;101819.72;;;22.67;30.41
56518;BME280;42419;48.760;2.322;2023-02-16T01:26:31;101825.16;;;22.66;30.23
56518;BME280;42419;48.760;2.322;2023-02-16T01:29:01;101841.72;;;22.78;30.23
56518;BME280;42419;48.760;2.322;2023-02-16T01:31:26;101843.56;;;22.76;30.17
56518;BME280;42419;48.760;2.322;2023-02-16T01:33:51;101839.03;;;22.78;29.94
56518;BME280;42419;48.760;2.322;2023-02-16T01:36:27;101838.16;;;22.78;30.07
56518;BME280;42419;48.760;2.322;2023-02-16T01:38:53;101834.56;;;22.79;29.72
56518;BME280;42419;48.760;2.322;2023-02-16T01:41:32;101831.91;;;22.77;29.90
56518;BME280;42419;48.760;2.322;2023-02-16T01:44:08;101827.47;;;22.76;29.81
56518;BME280;42419;48.760;2.322;2023-02-16T01:49:18;101822.09;;;22.76;30.03
56518;BME280;42419;48.760;2.322;2023-02-16T01:51:52;101820.56;;;22.69;30.27
56518;BME280;42419;48.760;2.322;2023-02-16T01:54:33;101816.72;;;22.76;30.20
56518;BME280;42419;48.760;2.322;2023-02-16T02:02:19;101802.41;;;22.76;29.90
56518;BME280;42419;48.760;2.322;2023-02-16T02:04:49;101790.25;;;22.66;29.96
56518;BME280;42419;48.760;2.322;2023-02-16T02:10:34;101805.16;;;22.74;29.83
56518;BME280;42419;48.760;2.322;2023-02-16T02:13:19;101798.91;;;22.74;29.93
56518;BME280;42419;48.760;2.322;2023-02-16T02:15:45;101790.88;;;22.74;30.56
56518;BME280;42419;48.760;2.322;2023-02-16T02:18:11;101792.66;;;22.73;29.87
56518;BME280;42419;48.760;2.322;2023-02-16T02:26:53;101792.78;;;22.70;29.77
56518;BME280;42419;48.760;2.322;2023-02-16T02:32:17;101776.06;;;22.62;29.80
56518;BME280;42419;48.760;2.322;2023-02-16T02:34:57;101787.34;;;22.72;29.96
56518;BME280;42419;48.760;2.322;2023-02-16T02:42:50;101785.53;;;22.72;29.63
56518;BME280;42419;48.760;2.322;2023-02-16T02:45:29;101790.91;;;22.72;29.52
56518;BME280;42419;48.760;2.322;2023-02-16T02:47:55;101779.28;;;22.72;29.55
56518;BME280;42419;48.760;2.322;2023-02-16T02:50:36;101783.78;;;22.71;29.64
56518;BME280;42419;48.760;2.322;2023-02-16T02:53:10;101783.78;;;22.71;29.49
56518;BME280;42419;48.760;2.322;2023-02-16T02:55:41;101782.84;;;22.72;29.63
56518;BME280;42419;48.760;2.322;2023-02-16T02:58:27;101779.28;;;22.72;29.43
56518;BME280;42419;48.760;2.322;2023-02-16T03:01:13;101780.16;;;22.72;29.54
56518;BME280;42419;48.760;2.322;2023-02-16T03:03:47;101786.41;;;22.73;29.63
56518;BME280;42419;48.760;2.322;2023-02-16T03:06:20;101784.66;;;22.72;29.58
56518;BME280;42419;48.760;2.322;2023-02-16T03:08:52;101751.91;;;22.62;29.44
56518;BME280;42419;48.760;2.322;2023-02-16T03:11:21;101751.94;;;22.61;29.88
56518;BME280;42419;48.760;2.322;2023-02-16T03:14:09;101773.16;;;22.68;29.53
56518;BME280;42419;48.760;2.322;2023-02-16T03:16:41;101774.91;;;22.69;29.49
56518;BME280;42419;48.760;2.322;2023-02-16T03:19:10;101777.56;;;22.71;29.50
56518;BME280;42419;48.760;2.322;2023-02-16T03:21:57;101773.03;;;22.71;29.40
56518;BME280;42419;48.760;2.322;2023-02-16T03:24:42;101770.34;;;22.71;29.47
56518;BME280;42419;48.760;2.322;2023-02-16T03:27:30;101761.44;;;22.71;29.50
56518;BME280;42419;48.760;2.322;2023-02-16T03:30:16;101757.28;;;22.62;29.36
56518;BME280;42419;48.760;2.322;2023-02-16T03:32:43;101741.31;;;22.58;29.37
56518;BME280;42419;48.760;2.322;2023-02-16T03:35:08;101767.75;;;22.70;29.47
56518;BME280;42419;48.760;2.322;2023-02-16T03:37:37;101763.44;;;22.64;29.39
56518;BME280;42419;48.760;2.322;2023-02-16T03:40:04;101764.16;;;22.69;29.48
56518;BME280;42419;48.760;2.322;2023-02-16T03:42:50;101755.25;;;22.69;29.39
56518;BME280;42419;48.760;2.322;2023-02-16T03:45:17;101753.53;;;22.66;29.42
56518;BME280;42419;48.760;2.322;2023-02-16T03:47:42;101760.59;;;22.69;29.18
56518;BME280;42419;48.760;2.322;2023-02-16T03:50:08;101761.47;;;22.69;29.32
56518;BME280;42419;48.760;2.322;2023-02-16T03:52:33;101754.47;;;22.65;29.33
56518;BME280;42419;48.760;2.322;2023-02-16T03:54:59;101761.53;;;22.68;29.29
56518;BME280;42419;48.760;2.322;2023-02-16T03:57:24;101757.91;;;22.69;29.24
56518;BME280;42419;48.760;2.322;2023-02-16T03:59:50;101758.81;;;22.69;29.37
56518;BME280;42419;48.760;2.322;2023-02-16T04:02:16;101767.78;;;22.68;29.35
56518;BME280;42419;48.760;2.322;2023-02-16T04:04:41;101758.06;;;22.64;29.53
56518;BME280;42419;48.760;2.322;2023-02-16T04:07:06;101766.91;;;22.68;29.36
56518;BME280;42419;48.760;2.322;2023-02-16T04:09:32;101771.38;;;22.67;29.41
56518;BME280;42419;48.760;2.322;2023-02-16T04:11:57;101773.19;;;22.67;29.21
56518;BME280;42419;48.760;2.322;2023-02-16T04:14:41;101762.44;;;22.67;29.37
56518;BME280;42419;48.760;2.322;2023-02-16T04:17:06;101770.50;;;22.67;29.21
56518;BME280;42419;48.760;2.322;2023-02-16T04:19:34;101760.03;;;22.59;29.32
56518;BME280;42419;48.760;2.322;2023-02-16T04:21:59;101772.34;;;22.66;29.18
56518;BME280;42419;48.760;2.322;2023-02-16T04:24:25;101772.34;;;22.66;29.02
56518;BME280;42419;48.760;2.322;2023-02-16T04:26:50;101764.28;;;22.66;29.12
56518;BME280;42419;48.760;2.322;2023-02-16T04:29:15;101770.56;;;22.65;29.18
56518;BME280;42419;48.760;2.322;2023-02-16T04:31:41;101762.53;;;22.65;29.11
56518;BME280;42419;48.760;2.322;2023-02-16T04:34:06;101763.41;;;22.66;29.01
56518;BME280;42419;48.760;2.322;2023-02-16T04:36:31;101746.69;;;22.58;29.29
56518;BME280;42419;48.760;2.322;2023-02-16T04:38:58;101765.22;;;22.65;29.41
56518;BME280;42419;48.760;2.322;2023-02-16T04:41:24;101770.56;;;22.65;29.39
56518;BME280;42419;48.760;2.322;2023-02-16T04:43:50;101758.19;;;22.61;29.14
56518;BME280;42419;48.760;2.322;2023-02-16T04:46:16;101761.66;;;22.65;29.11
56518;BME280;42419;48.760;2.322;2023-02-16T04:48:43;101756.28;;;22.65;29.17
56518;BME280;42419;48.760;2.322;2023-02-16T04:51:08;101752.72;;;22.64;29.31
56518;BME280;42419;48.760;2.322;2023-02-16T04:53:34;101756.28;;;22.65;29.17
56518;BME280;42419;48.760;2.322;2023-02-16T04:55:59;101760.75;;;22.64;28.87
56518;BME280;42419;48.760;2.322;2023-02-16T04:58:24;101758.06;;;22.64;29.20
56518;BME280;42419;48.760;2.322;2023-02-16T05:00:50;101767.00;;;22.65;29.10
56518;BME280;42419;48.760;2.322;2023-02-16T05:03:15;101757.19;;;22.64;29.03
56518;BME280;42419;48.760;2.322;2023-02-16T05:05:40;101761.78;;;22.60;29.08
56518;BME280;42419;48.760;2.322;2023-02-16T05:08:06;101770.63;;;22.64;28.95
56518;BME280;42419;48.760;2.322;2023-02-16T05:10:31;101770.56;;;22.65;29.19
56518;BME280;42419;48.760;2.322;2023-02-16T05:12:56;101760.91;;;22.60;29.21
56518;BME280;42419;48.760;2.322;2023-02-16T05:15:40;101768.78;;;22.66;29.10
56518;BME280;42419;48.760;2.322;2023-02-16T05:18:06;101760.88;;;22.61;29.07
56518;BME280;42419;48.760;2.322;2023-02-16T05:20:31;101772.34;;;22.66;29.11
56518;BME280;42419;48.760;2.322;2023-02-16T05:23:15;101771.38;;;22.67;28.40
56518;BME280;42419;48.760;2.322;2023-02-16T05:25:41;101771.38;;;22.67;29.10
56518;BME280;42419;48.760;2.322;2023-02-16T05:28:06;101751.81;;;22.64;29.10
56518;BME280;42419;48.760;2.322;2023-02-16T05:30:32;101757.97;;;22.67;29.03
56518;BME280;42419;48.760;2.322;2023-02-16T05:32:57;101756.16;;;22.68;29.15
56518;BME280;42419;48.760;2.322;2023-02-16T05:35:22;101760.66;;;22.67;29.09
56518;BME280;42419;48.760;2.322;2023-02-16T05:37:48;101756.16;;;22.68;29.17
56518;BME280;42419;48.760;2.322;2023-02-16T05:40:13;101764.22;;;22.68;29.03
56518;BME280;42419;48.760;2.322;2023-02-16T05:42:39;101763.41;;;22.66;29.38
56518;BME280;42419;48.760;2.322;2023-02-16T05:45:04;101766.00;;;22.67;29.11
56518;BME280;42419;48.760;2.322;2023-02-16T05:47:30;101737.91;;;22.51;28.94
56518;BME280;42419;48.760;2.322;2023-02-16T05:49:55;101744.97;;;22.55;29.09
56518;BME280;42419;48.760;2.322;2023-02-16T05:52:20;101768.81;;;22.64;29.03
56518;BME280;42419;48.760;2.322;2023-02-16T05:54:46;101777.75;;;22.65;29.08
56518;BME280;42419;48.760;2.322;2023-02-16T05:57:11;101751.97;;;22.59;29.11
56518;BME280;42419;48.760;2.322;2023-02-16T05:59:36;101767.06;;;22.63;29.25
56518;BME280;42419;48.760;2.322;2023-02-16T06:02:02;101772.41;;;22.63;29.18
56518;BME280;42419;48.760;2.322;2023-02-16T06:04:27;101772.41;;;22.63;29.20
56518;BME280;42419;48.760;2.322;2023-02-16T06:06:53;101766.28;;;22.60;29.08
56518;BME280;42419;48.760;2.322;2023-02-16T06:09:18;101768.84;;;22.63;29.25
56518;BME280;42419;48.760;2.322;2023-02-16T06:11:44;101773.38;;;22.62;29.13
56518;BME280;42419;48.760;2.322;2023-02-16T06:14:17;101778.75;;;22.62;29.08
56518;BME280;42419;48.760;2.322;2023-02-16T06:16:45;101774.22;;;22.63;29.11
56518;BME280;42419;48.760;2.322;2023-02-16T06:19:12;101772.41;;;22.63;29.52
56518;BME280;42419;48.760;2.322;2023-02-16T06:21:38;101773.31;;;22.64;29.18
56518;BME280;42419;48.760;2.322;2023-02-16T06:24:05;101755.78;;;22.52;29.34
56518;BME280;42419;48.760;2.322;2023-02-16T06:26:31;101779.50;;;22.66;29.30
56518;BME280;42419;48.760;2.322;2023-02-16T06:28:56;101768.00;;;22.62;29.34
56518;BME280;42419;48.760;2.322;2023-02-16T06:31:22;101781.19;;;22.68;29.44
56518;BME280;42419;48.760;2.322;2023-02-16T06:33:49;101784.75;;;22.69;29.52
56518;BME280;42419;48.760;2.322;2023-02-16T06:36:14;101774.91;;;22.69;29.35
56518;BME280;42419;48.760;2.322;2023-02-16T06:38:40;101765.38;;;22.61;29.60
56518;BME280;42419;48.760;2.322;2023-02-16T06:41:05;101784.63;;;22.73;29.82
56518;BME280;42419;48.760;2.322;2023-02-16T06:43:31;101778.66;;;22.64;29.54
56518;BME280;42419;48.760;2.322;2023-02-16T06:45:56;101797.16;;;22.73;29.68
56518;BME280;42419;48.760;2.322;2023-02-16T06:48:22;101796.28;;;22.72;29.73
56518;BME280;42419;48.760;2.322;2023-02-16T06:50:47;101782.41;;;22.60;29.36
56518;BME280;42419;48.760;2.322;2023-02-16T06:53:13;101799.84;;;22.73;29.43
56518;BME280;42419;48.760;2.322;2023-02-16T06:55:38;101801.66;;;22.72;29.91
56518;BME280;42419;48.760;2.322;2023-02-16T06:58:04;101794.75;;;22.65;29.85
56518;BME280;42419;48.760;2.322;2023-02-16T07:00:30;101784.19;;;22.59;29.84
56518;BME280;42419;48.760;2.322;2023-02-16T07:02:55;101813.22;;;22.74;30.20
56518;BME280;42419;48.760;2.322;2023-02-16T07:05:21;101811.34;;;22.76;29.91
56518;BME280;42419;48.760;2.322;2023-02-16T07:07:46;101799.94;;;22.70;29.83
56518;BME280;42419;48.760;2.322;2023-02-16T07:10:12;101821.22;;;22.76;29.89
56518;BME280;42419;48.760;2.322;2023-02-16T07:12:38;101814.88;;;22.78;30.44
56518;BME280;42419;48.760;2.322;2023-02-16T07:15:04;101824.69;;;22.79;29.81
56518;BME280;42419;48.760;2.322;2023-02-16T07:17:29;101822.94;;;22.78;30.10
56518;BME280;42419;48.760;2.322;2023-02-16T07:19:55;101822.81;;;22.81;30.14
56518;BME280;42419;48.760;2.322;2023-02-16T07:22:20;101820.44;;;22.72;30.25
56518;BME280;42419;48.760;2.322;2023-02-16T07:24:46;101839.81;;;22.82;30.13
56518;BME280;42419;48.760;2.322;2023-02-16T07:27:11;101828.25;;;22.80;30.11
56518;BME280;42419;48.760;2.322;2023-02-16T07:29:36;101836.34;;;22.78;30.31
56518;BME280;42419;48.760;2.322;2023-02-16T07:32:02;101831.91;;;22.77;30.26
56518;BME280;42419;48.760;2.322;2023-02-16T07:34:28;101827.59;;;22.72;30.11
56518;BME280;42419;48.760;2.322;2023-02-16T07:36:53;101844.56;;;22.74;30.14
56518;BME280;42419;48.760;2.322;2023-02-16T07:39:19;101848.22;;;22.71;30.03
56518;BME280;42419;48.760;2.322;2023-02-16T07:41:44;101844.72;;;22.69;30.11
56518;BME280;42419;48.760;2.322;2023-02-16T07:44:09;101848.22;;;22.71;29.97
56518;BME280;42419;48.760;2.322;2023-02-16T07:46:35;101856.13;;;22.76;29.99
56518;BME280;42419;48.760;2.322;2023-02-16T07:49:00;101864.09;;;22.79;29.91
56518;BME280;42419;48.760;2.322;2023-02-16T07:51:28;101860.53;;;22.78;29.88
56518;BME280;42419;48.760;2.322;2023-02-16T07:53:55;101866.81;;;22.77;30.11
56518;BME280;42419;48.760;2.322;2023-02-16T07:56:24;101858.75;;;22.77;29.82
56518;BME280;42419;48.760;2.322;2023-02-16T07:58:54;101816.59;;;22.53;29.77
56518;BME280;42419;48.760;2.322;2023-02-16T08:01:20;101853.44;;;22.76;29.72
56518;BME280;42419;48.760;2.322;2023-02-16T08:03:49;101845.59;;;22.70;29.73
56518;BME280;42419;48.760;2.322;2023-02-16T08:06:17;101852.72;;;22.71;29.76
56518;BME280;42419;48.760;2.322;2023-02-16T08:08:43;101868.69;;;22.75;30.23
56518;BME280;42419;48.760;2.322;2023-02-16T08:11:10;101868.72;;;22.74;29.38
56518;BME280;42419;48.760;2.322;2023-02-16T08:13:36;101863.47;;;22.71;29.85
56518;BME280;42419;48.760;2.322;2023-02-16T08:16:01;101854.69;;;22.66;29.72
56518;BME280;42419;48.760;2.322;2023-02-16T08:18:26;101877.69;;;22.73;29.67
56518;BME280;42419;48.760;2.322;2023-02-16T08:20:52;101880.38;;;22.73;29.62
56518;BME280;42419;48.760;2.322;2023-02-16T08:23:17;101873.22;;;22.73;29.68
56518;BME280;42419;48.760;2.322;2023-02-16T08:25:42;101877.69;;;22.73;29.77
56518;BME280;42419;48.760;2.322;2023-02-16T08:28:08;101858.28;;;22.65;29.52
56518;BME280;42419;48.760;2.322;2023-02-16T08:30:33;101871.53;;;22.71;29.64
56518;BME280;42419;48.760;2.322;2023-02-16T08:32:59;101869.69;;;22.71;29.43
56518;BME280;42419;48.760;2.322;2023-02-16T08:35:27;101871.44;;;22.72;29.64
56518;BME280;42419;48.760;2.322;2023-02-16T08:37:54;101865.19;;;22.72;29.58
56518;BME280;42419;48.760;2.322;2023-02-16T08:40:20;101851.22;;;22.62;29.47
56518;BME280;42419;48.760;2.322;2023-02-16T08:42:49;101837.59;;;22.68;29.57
56518;BME280;42419;48.760;2.322;2023-02-16T08:45:17;101830.59;;;22.63;29.34
56518;BME280;42419;48.760;2.322;2023-02-16T08:47:42;101842.00;;;22.71;29.55
56518;BME280;42419;48.760;2.322;2023-02-16T08:50:08;101831.25;;;22.71;29.51
56518;BME280;42419;48.760;2.322;2023-02-16T08:52:35;101828.06;;;22.58;29.68
56518;BME280;42419;48.760;2.322;2023-02-16T08:55:01;101823.50;;;22.62;29.26
56518;BME280;42419;48.760;2.322;2023-02-16T08:57:27;101819.16;;;22.58;29.53
56518;BME280;42419;48.760;2.322;2023-02-16T08:59:52;101849.16;;;22.70;29.57
56518;BME280;42419;48.760;2.322;2023-02-16T09:02:38;101857.22;;;22.70;29.44
56518;BME280;42419;48.760;2.322;2023-02-16T09:05:03;101864.31;;;22.71;29.52
56518;BME280;42419;48.760;2.322;2023-02-16T09:07:29;101855.56;;;22.66;29.24
56518;BME280;42419;48.760;2.322;2023-02-16T09:09:59;101856.25;;;22.71;29.38
56518;BME280;42419;48.760;2.322;2023-02-16T09:12:24;101835.94;;;22.64;29.53
56518;BME280;42419;48.760;2.322;2023-02-16T09:14:49;101852.72;;;22.71;29.43
56518;BME280;42419;48.760;2.322;2023-02-16T09:17:18;101850.19;;;22.66;29.33
56518;BME280;42419;48.760;2.322;2023-02-16T09:19:43;101862.59;;;22.70;29.43
56518;BME280;42419;48.760;2.322;2023-02-16T09:22:09;101871.44;;;22.72;29.30
56518;BME280;42419;48.760;2.322;2023-02-16T09:24:34;101890.22;;;22.74;29.30
56518;BME280;42419;48.760;2.322;2023-02-16T09:27:00;101884.84;;;22.74;29.25
56518;BME280;42419;48.760;2.322;2023-02-16T09:29:25;101877.84;;;22.68;29.33
56518;BME280;42419;48.760;2.322;2023-02-16T09:31:53;101882.25;;;22.71;29.30
56518;BME280;42419;48.760;2.322;2023-02-16T09:34:21;101882.19;;;22.72;29.85
56518;BME280;42419;48.760;2.322;2023-02-16T09:36:47;101876.81;;;22.72;29.23
56518;BME280;42419;48.760;2.322;2023-02-16T09:39:13;101880.38;;;22.73;29.50
56518;BME280;42419;48.760;2.322;2023-02-16T09:42:02;101889.31;;;22.73;29.37
56518;BME280;42419;48.760;2.322;2023-02-16T09:47:26;101863.84;;;22.59;29.32
56518;BME280;42419;48.760;2.322;2023-02-16T09:49:58;101895.63;;;22.72;29.17
56518;BME280;42419;48.760;2.322;2023-02-16T09:52:42;101880.44;;;22.71;29.26
56518;BME280;42419;48.760;2.322;2023-02-16T09:55:16;101850.38;;;22.60;29.39
56518;BME280;42419;48.760;2.322;2023-02-16T10:05:42;101891.16;;;22.71;29.23
56518;BME280;42419;48.760;2.322;2023-02-16T10:08:30;101893.00;;;22.71;29.36
56518;BME280;42419;48.760;2.322;2023-02-16T10:11:24;101889.44;;;22.70;29.35
56518;BME280;42419;48.760;2.322;2023-02-16T10:14:39;101901.09;;;22.69;29.31
56518;BME280;42419;48.760;2.322;2023-02-16T10:17:18;101866.78;;;22.50;29.50
56518;BME280;42419;48.760;2.322;2023-02-16T10:22:33;101893.06;;;22.68;29.33
56518;BME280;42419;48.760;2.322;2023-02-16T10:25:11;101893.97;;;22.68;29.44
56518;BME280;42419;48.760;2.322;2023-02-16T10:27:40;101897.53;;;22.69;29.31
56518;BME280;42419;48.760;2.322;2023-02-16T10:30:24;101893.97;;;22.68;29.41
56518;BME280;42419;48.760;2.322;2023-02-16T10:33:30;101897.53;;;22.69;29.22
56518;BME280;42419;48.760;2.322;2023-02-16T10:35:57;101893.97;;;22.68;29.35
56518;BME280;42419;48.760;2.322;2023-02-16T10:38:39;101902.00;;;22.68;29.37
56518;BME280;42419;48.760;2.322;2023-02-16T10:43:55;101899.38;;;22.67;29.43
56518;BME280;42419;48.760;2.322;2023-02-16T10:46:25;101899.38;;;22.67;29.35
56518;BME280;42419;48.760;2.322;2023-02-16T10:48:55;101900.25;;;22.67;29.25
56518;BME280;42419;48.760;2.322;2023-02-16T10:51:25;101899.38;;;22.67;29.42
56518;BME280;42419;48.760;2.322;2023-02-16T10:53:55;101901.13;;;22.68;29.50
56518;BME280;42419;48.760;2.322;2023-02-16T10:59:21;101896.66;;;22.68;29.49
56518;BME280;42419;48.760;2.322;2023-02-16T11:01:57;101887.81;;;22.65;29.56
56518;BME280;42419;48.760;2.322;2023-02-16T11:04:34;101896.66;;;22.68;29.61
56518;BME280;42419;48.760;2.322;2023-02-16T11:07:10;101896.66;;;22.68;29.62
56518;BME280;42419;48.760;2.322;2023-02-16T11:09:40;101886.94;;;22.64;29.56
56518;BME280;42419;48.760;2.322;2023-02-16T11:15:24;101888.56;;;22.70;29.45
56518;BME280;42419;48.760;2.322;2023-02-16T11:18:03;101884.06;;;22.70;29.59
56518;BME280;42419;48.760;2.322;2023-02-16T11:20:51;101884.94;;;22.71;29.27
56518;BME280;42419;48.760;2.322;2023-02-16T11:23:21;101878.63;;;22.72;29.48
56518;BME280;42419;48.760;2.322;2023-02-16T11:28:34;101890.09;;;22.77;29.62
56518;BME280;42419;48.760;2.322;2023-02-16T11:31:08;101881.97;;;22.80;29.80
56518;BME280;42419;48.760;2.322;2023-02-16T11:33:36;101882.75;;;22.83;29.78
56518;BME280;42419;48.760;2.322;2023-02-16T11:36:03;101865.84;;;22.80;29.80
56518;BME280;42419;48.760;2.322;2023-02-16T11:38:55;101875.41;;;22.89;29.89
56518;BME280;42419;48.760;2.322;2023-02-16T11:41:22;101851.31;;;22.85;30.26
56518;BME280;42419;48.760;2.322;2023-02-16T11:43:48;101868.16;;;22.91;30.31
56518;BME280;42419;48.760;2.322;2023-02-16T11:46:16;101857.41;;;22.91;30.07
56518;BME280;42419;48.760;2.322;2023-02-16T11:48:43;101864.28;;;22.99;29.98
56518;BME280;42419;48.760;2.322;2023-02-16T11:51:10;101859.78;;;23.00;30.11
56518;BME280;42419;48.760;2.322;2023-02-16T11:53:38;101862.44;;;23.01;30.34
56518;BME280;42419;48.760;2.322;2023-02-16T12:07:09;101850.81;;;23.01;30.38
56518;BME280;42419;48.760;2.322;2023-02-16T12:09:52;101847.09;;;23.05;30.60
56518;BME280;42419;48.760;2.322;2023-02-16T12:15:20;101838.03;;;23.07;30.55
56518;BME280;42419;48.760;2.322;2023-02-16T12:23:54;101827.25;;;23.09;30.73
56518;BME280;42419;48.760;2.322;2023-02-16T12:32:13;101824.41;;;23.13;30.28
56518;BME280;42419;48.760;2.322;2023-02-16T12:38:09;101818.97;;;23.15;30.29
56518;BME280;42419;48.760;2.322;2023-02-16T12:40:45;101817.09;;;23.17;30.38
56518;BME280;42419;48.760;2.322;2023-02-16T12:45:44;101814.31;;;23.20;30.41
56518;BME280;42419;48.760;2.322;2023-02-16T12:50:36;101790.41;;;23.12;30.46
56518;BME280;42419;48.760;2.322;2023-02-16T12:53:26;101798.38;;;23.15;30.27
56518;BME280;42419;48.760;2.322;2023-02-16T12:56:08;101795.84;;;23.11;30.49
56518;BME280;42419;48.760;2.322;2023-02-16T12:58:39;101801.78;;;23.20;30.60
56518;BME280;42419;48.760;2.322;2023-02-16T13:01:12;101773.84;;;23.00;30.44
56518;BME280;42419;48.760;2.322;2023-02-16T13:11:48;101801.06;;;23.15;30.70
56518;BME280;42419;48.760;2.322;2023-02-16T13:14:22;101797.53;;;23.13;30.64
56518;BME280;42419;48.760;2.322;2023-02-16T13:16:56;101782.63;;;23.05;30.85
56518;BME280;42419;48.760;2.322;2023-02-16T13:19:23;101796.72;;;23.11;30.46
56518;BME280;42419;48.760;2.322;2023-02-16T13:27:05;101773.97;;;22.97;30.80
56518;BME280;42419;48.760;2.322;2023-02-16T13:43:41;101773.72;;;23.03;30.74
56518;BME280;42419;48.760;2.322;2023-02-16T13:46:17;101756.19;;;22.93;30.74
56518;BME280;42419;48.760;2.322;2023-02-16T13:48:48;101775.56;;;23.02;30.97
56518;BME280;42419;48.760;2.322;2023-02-16T13:51:19;101765.75;;;23.01;30.72
56518;BME280;42419;48.760;2.322;2023-02-16T13:54:01;101762.19;;;23.01;30.81
56518;BME280;42419;48.760;2.322;2023-02-16T13:56:35;101757.72;;;23.00;30.71
56518;BME280;42419;48.760;2.322;2023-02-16T14:01:43;101763.97;;;23.00;30.75
56518;BME280;42419;48.760;2.322;2023-02-16T14:06:47;101760.41;;;23.00;30.79
56518;BME280;42419;48.760;2.322;2023-02-16T14:14:28;101746.97;;;23.00;30.79
56518;BME280;42419;48.760;2.322;2023-02-16T14:17:13;101750.50;;;23.02;30.85
56518;BME280;42419;48.760;2.322;2023-02-16T14:25:29;101736.19;;;23.01;31.08
56518;BME280;42419;48.760;2.322;2023-02-16T14:35:38;101754.06;;;23.02;30.84
56518;BME280;42419;48.760;2.322;2023-02-16T14:38:25;101750.53;;;23.00;30.81
56518;BME280;42419;48.760;2.322;2023-02-16T14:40:53;101748.78;;;22.99;30.69
56518;BME280;42419;48.760;2.322;2023-02-16T14:43:39;101746.19;;;22.98;30.70
56518;BME280;42419;48.760;2.322;2023-02-16T14:51:52;101734.72;;;22.93;30.90
56518;BME280;42419;48.760;2.322;2023-02-16T14:54:40;101732.06;;;22.91;30.68
56518;BME280;42419;48.760;2.322;2023-02-16T14:57:14;101727.75;;;22.87;30.76
56518;BME280;42419;48.760;2.322;2023-02-16T14:59:51;101725.94;;;22.88;30.68
56518;BME280;42419;48.760;2.322;2023-02-16T15:02:37;101735.81;;;22.87;30.75
56518;BME280;42419;48.760;2.322;2023-02-16T15:05:21;101733.25;;;22.84;30.73
56518;BME280;42419;48.760;2.322;2023-02-16T15:07:51;101738.66;;;22.82;30.76
56518;BME280;42419;48.760;2.322;2023-02-16T15:10:21;101731.50;;;22.81;30.65
56518;BME280;42419;48.760;2.322;2023-02-16T15:12:51;101740.50;;;22.80;30.69
56518;BME280;42419;48.760;2.322;2023-02-16T15:15:20;101714.19;;;22.65;30.53
56518;BME280;42419;48.760;2.322;2023-02-16T15:17:48;101737.94;;;22.77;30.70
56518;BME280;42419;48.760;2.322;2023-02-16T15:20:29;101741.69;;;22.72;30.43
56518;BME280;42419;48.760;2.322;2023-02-16T15:22:58;101747.91;;;22.74;30.84
56518;BME280;42419;48.760;2.322;2023-02-16T15:27:57;101752.50;;;22.70;30.53
56518;BME280;42419;48.760;2.322;2023-02-16T15:30:31;101747.34;;;22.64;30.51